sensor_id;sensor_type;location;lat;lon;timestamp;P1;durP1;ratioP1;P2;durP2;ratioP2
54555;SDS011;57291;37.520;15.106;2024-02-23T00:02:26;19.13;;;15.40;;
54555;SDS011;57291;37.520;15.106;2024-02-23T00:04:54;21.52;;;15.38;;
54555;SDS011;57291;37.520;15.106;2024-02-23T00:07:21;21.70;;;15.90;;
54555;SDS011;57291;37.520;15.106;2024-02-23T00:09:48;18.08;;;14.25;;
54555;SDS011;57291;37.520;15.106;2024-02-23T00:12:16;17.63;;;14.48;;
54555;SDS011;57291;37.520;15.106;2024-02-23T00:14:44;19.55;;;15.13;;
54555;SDS011;57291;37.520;15.106;2024-02-23T00:17:11;19.65;;;15.43;;
54555;SDS011;57291;37.520;15.106;2024-02-23T00:19:39;19.48;;;15.15;;
54555;SDS011;57291;37.520;15.106;2024-02-23T00:22:06;20.92;;;15.73;;
54555;SDS011;57291;37.520;15.106;2024-02-23T00:24:34;20.08;;;16.23;;
54555;SDS011;57291;37.520;15.106;2024-02-23T00:27:03;18.70;;;15.00;;
54555;SDS011;57291;37.520;15.106;2024-02-23T00:29:31;21.48;;;16.13;;
54555;SDS011;57291;37.520;15.106;2024-02-23T00:31:58;20.10;;;15.40;;
54555;SDS011;57291;37.520;15.106;2024-02-23T00:34:26;18.33;;;15.68;;
54555;SDS011;57291;37.520;15.106;2024-02-23T00:36:53;22.38;;;15.07;;
54555;SDS011;57291;37.520;15.106;2024-02-23T00:39:20;21.83;;;16.30;;
54555;SDS011;57291;37.520;15.106;2024-02-23T00:41:48;19.05;;;15.25;;
54555;SDS011;57291;37.520;15.106;2024-02-23T00:44:16;20.77;;;16.05;;
54555;SDS011;57291;37.520;15.106;2024-02-23T00:46:43;21.17;;;17.08;;
54555;SDS011;57291;37.520;15.106;2024-02-23T00:49:11;21.98;;;15.85;;
54555;SDS011;57291;37.520;15.106;2024-02-23T00:51:38;21.35;;;16.30;;
54555;SDS011;57291;37.520;15.106;2024-02-23T00:54:05;21.90;;;16.27;;
54555;SDS011;57291;37.520;15.106;2024-02-23T00:56:34;23.83;;;17.10;;
54555;SDS011;57291;37.520;15.106;2024-02-23T00:59:16;24.58;;;17.67;;
54555;SDS011;57291;37.520;15.106;2024-02-23T01:01:44;18.67;;;15.40;;
54555;SDS011;57291;37.520;15.106;2024-02-23T01:04:12;23.63;;;16.85;;
54555;SDS011;57291;37.520;15.106;2024-02-23T01:06:39;20.60;;;15.35;;
54555;SDS011;57291;37.520;15.106;2024-02-23T01:09:06;19.52;;;16.33;;
54555;SDS011;57291;37.520;15.106;2024-02-23T01:11:34;21.73;;;16.63;;
54555;SDS011;57291;37.520;15.106;2024-02-23T01:14:01;21.23;;;16.23;;
54555;SDS011;57291;37.520;15.106;2024-02-23T01:16:28;19.48;;;15.95;;
54555;SDS011;57291;37.520;15.106;2024-02-23T01:18:56;18.63;;;14.52;;
54555;SDS011;57291;37.520;15.106;2024-02-23T01:21:23;17.75;;;14.93;;
54555;SDS011;57291;37.520;15.106;2024-02-23T01:23:50;20.10;;;15.07;;
54555;SDS011;57291;37.520;15.106;2024-02-23T01:26:18;17.70;;;15.18;;
54555;SDS011;57291;37.520;15.106;2024-02-23T01:28:45;18.30;;;15.35;;
54555;SDS011;57291;37.520;15.106;2024-02-23T01:31:13;18.90;;;14.95;;
54555;SDS011;57291;37.520;15.106;2024-02-23T01:33:40;19.70;;;15.98;;
54555;SDS011;57291;37.520;15.106;2024-02-23T01:36:08;20.92;;;15.88;;
54555;SDS011;57291;37.520;15.106;2024-02-23T01:38:35;21.35;;;15.60;;
54555;SDS011;57291;37.520;15.106;2024-02-23T01:41:03;23.13;;;16.98;;
54555;SDS011;57291;37.520;15.106;2024-02-23T01:43:31;20.73;;;16.38;;
54555;SDS011;57291;37.520;15.106;2024-02-23T01:45:58;22.30;;;15.95;;
54555;SDS011;57291;37.520;15.106;2024-02-23T01:48:25;20.00;;;15.13;;
54555;SDS011;57291;37.520;15.106;2024-02-23T01:50:54;21.42;;;15.38;;
54555;SDS011;57291;37.520;15.106;2024-02-23T01:53:22;23.13;;;15.63;;
54555;SDS011;57291;37.520;15.106;2024-02-23T01:55:52;18.58;;;14.70;;
54555;SDS011;57291;37.520;15.106;2024-02-23T01:58:21;20.88;;;14.77;;
54555;SDS011;57291;37.520;15.106;2024-02-23T02:00:49;21.05;;;14.90;;
54555;SDS011;57291;37.520;15.106;2024-02-23T02:03:16;17.20;;;14.65;;
54555;SDS011;57291;37.520;15.106;2024-02-23T02:05:44;17.45;;;14.05;;
54555;SDS011;57291;37.520;15.106;2024-02-23T02:08:12;18.77;;;14.32;;
54555;SDS011;57291;37.520;15.106;2024-02-23T02:10:39;18.92;;;14.52;;
54555;SDS011;57291;37.520;15.106;2024-02-23T02:13:07;19.52;;;15.15;;
54555;SDS011;57291;37.520;15.106;2024-02-23T02:15:34;19.95;;;14.80;;
54555;SDS011;57291;37.520;15.106;2024-02-23T02:18:02;18.60;;;14.80;;
54555;SDS011;57291;37.520;15.106;2024-02-23T02:20:31;18.73;;;14.75;;
54555;SDS011;57291;37.520;15.106;2024-02-23T02:23:00;19.05;;;14.40;;
54555;SDS011;57291;37.520;15.106;2024-02-23T02:25:27;19.42;;;14.80;;
54555;SDS011;57291;37.520;15.106;2024-02-23T02:27:55;17.58;;;14.30;;
54555;SDS011;57291;37.520;15.106;2024-02-23T02:30:22;16.88;;;13.98;;
54555;SDS011;57291;37.520;15.106;2024-02-23T02:32:50;19.27;;;14.15;;
54555;SDS011;57291;37.520;15.106;2024-02-23T02:35:17;16.33;;;13.15;;
54555;SDS011;57291;37.520;15.106;2024-02-23T02:37:45;18.75;;;13.95;;
54555;SDS011;57291;37.520;15.106;2024-02-23T02:40:12;18.88;;;14.50;;
54555;SDS011;57291;37.520;15.106;2024-02-23T02:42:39;19.13;;;14.23;;
54555;SDS011;57291;37.520;15.106;2024-02-23T02:45:07;17.70;;;13.73;;
54555;SDS011;57291;37.520;15.106;2024-02-23T02:47:34;17.50;;;13.30;;
54555;SDS011;57291;37.520;15.106;2024-02-23T02:50:03;15.88;;;13.50;;
54555;SDS011;57291;37.520;15.106;2024-02-23T02:52:33;18.25;;;13.93;;
54555;SDS011;57291;37.520;15.106;2024-02-23T02:55:01;18.02;;;13.82;;
54555;SDS011;57291;37.520;15.106;2024-02-23T02:57:28;18.55;;;12.70;;
54555;SDS011;57291;37.520;15.106;2024-02-23T02:59:56;17.27;;;13.43;;
54555;SDS011;57291;37.520;15.106;2024-02-23T03:02:24;15.88;;;12.52;;
54555;SDS011;57291;37.520;15.106;2024-02-23T03:04:51;16.50;;;13.48;;
54555;SDS011;57291;37.520;15.106;2024-02-23T03:07:19;16.42;;;13.13;;
54555;SDS011;57291;37.520;15.106;2024-02-23T03:09:46;15.38;;;12.45;;
54555;SDS011;57291;37.520;15.106;2024-02-23T03:12:13;16.33;;;12.63;;
54555;SDS011;57291;37.520;15.106;2024-02-23T03:14:41;17.00;;;12.48;;
54555;SDS011;57291;37.520;15.106;2024-02-23T03:17:08;13.93;;;11.98;;
54555;SDS011;57291;37.520;15.106;2024-02-23T03:19:37;20.35;;;12.90;;
54555;SDS011;57291;37.520;15.106;2024-02-23T03:22:05;15.65;;;11.88;;
54555;SDS011;57291;37.520;15.106;2024-02-23T03:24:32;14.13;;;11.68;;
54555;SDS011;57291;37.520;15.106;2024-02-23T03:26:59;16.30;;;12.13;;
54555;SDS011;57291;37.520;15.106;2024-02-23T03:29:27;18.33;;;12.98;;
54555;SDS011;57291;37.520;15.106;2024-02-23T03:31:58;15.02;;;11.40;;
54555;SDS011;57291;37.520;15.106;2024-02-23T03:34:25;15.10;;;12.10;;
54555;SDS011;57291;37.520;15.106;2024-02-23T03:36:53;13.85;;;11.43;;
54555;SDS011;57291;37.520;15.106;2024-02-23T03:39:20;14.13;;;12.23;;
54555;SDS011;57291;37.520;15.106;2024-02-23T03:41:48;16.13;;;11.90;;
54555;SDS011;57291;37.520;15.106;2024-02-23T03:44:15;15.45;;;12.13;;
54555;SDS011;57291;37.520;15.106;2024-02-23T03:46:42;14.73;;;11.50;;
54555;SDS011;57291;37.520;15.106;2024-02-23T03:49:10;15.15;;;11.60;;
54555;SDS011;57291;37.520;15.106;2024-02-23T03:51:39;13.88;;;11.57;;
54555;SDS011;57291;37.520;15.106;2024-02-23T03:54:06;14.18;;;11.15;;
54555;SDS011;57291;37.520;15.106;2024-02-23T03:56:40;13.38;;;11.15;;
54555;SDS011;57291;37.520;15.106;2024-02-23T03:59:09;15.60;;;11.63;;
54555;SDS011;57291;37.520;15.106;2024-02-23T04:01:37;14.82;;;11.82;;
54555;SDS011;57291;37.520;15.106;2024-02-23T04:04:06;13.80;;;11.23;;
54555;SDS011;57291;37.520;15.106;2024-02-23T04:06:34;15.25;;;11.73;;
54555;SDS011;57291;37.520;15.106;2024-02-23T04:09:02;15.95;;;12.10;;
54555;SDS011;57291;37.520;15.106;2024-02-23T04:11:32;14.45;;;11.90;;
54555;SDS011;57291;37.520;15.106;2024-02-23T04:14:00;14.85;;;11.98;;
54555;SDS011;57291;37.520;15.106;2024-02-23T04:16:28;13.52;;;11.48;;
54555;SDS011;57291;37.520;15.106;2024-02-23T04:18:56;14.02;;;11.18;;
54555;SDS011;57291;37.520;15.106;2024-02-23T04:21:24;15.07;;;11.15;;
54555;SDS011;57291;37.520;15.106;2024-02-23T04:23:51;14.00;;;11.15;;
54555;SDS011;57291;37.520;15.106;2024-02-23T04:26:19;14.50;;;11.10;;
54555;SDS011;57291;37.520;15.106;2024-02-23T04:28:46;15.38;;;11.70;;
54555;SDS011;57291;37.520;15.106;2024-02-23T04:31:14;15.63;;;12.02;;
54555;SDS011;57291;37.520;15.106;2024-02-23T04:33:41;14.45;;;11.80;;
54555;SDS011;57291;37.520;15.106;2024-02-23T04:36:09;16.13;;;11.82;;
54555;SDS011;57291;37.520;15.106;2024-02-23T04:38:36;15.20;;;11.40;;
54555;SDS011;57291;37.520;15.106;2024-02-23T04:41:04;16.30;;;12.35;;
54555;SDS011;57291;37.520;15.106;2024-02-23T04:43:32;14.82;;;11.63;;
54555;SDS011;57291;37.520;15.106;2024-02-23T04:45:59;16.42;;;11.95;;
54555;SDS011;57291;37.520;15.106;2024-02-23T04:48:27;12.82;;;10.95;;
54555;SDS011;57291;37.520;15.106;2024-02-23T04:50:54;15.38;;;11.35;;
54555;SDS011;57291;37.520;15.106;2024-02-23T04:53:21;15.15;;;11.57;;
54555;SDS011;57291;37.520;15.106;2024-02-23T04:55:49;13.90;;;11.55;;
54555;SDS011;57291;37.520;15.106;2024-02-23T04:58:16;16.08;;;10.85;;
54555;SDS011;57291;37.520;15.106;2024-02-23T05:00:44;15.73;;;11.55;;
54555;SDS011;57291;37.520;15.106;2024-02-23T05:03:11;16.90;;;12.23;;
54555;SDS011;57291;37.520;15.106;2024-02-23T05:05:39;13.90;;;11.68;;
54555;SDS011;57291;37.520;15.106;2024-02-23T05:08:07;14.52;;;11.63;;
54555;SDS011;57291;37.520;15.106;2024-02-23T05:10:34;16.40;;;11.50;;
54555;SDS011;57291;37.520;15.106;2024-02-23T05:13:01;17.43;;;11.40;;
54555;SDS011;57291;37.520;15.106;2024-02-23T05:15:29;15.40;;;12.20;;
54555;SDS011;57291;37.520;15.106;2024-02-23T05:17:57;13.88;;;10.65;;
54555;SDS011;57291;37.520;15.106;2024-02-23T05:20:24;16.85;;;11.63;;
54555;SDS011;57291;37.520;15.106;2024-02-23T05:22:51;13.57;;;11.25;;
54555;SDS011;57291;37.520;15.106;2024-02-23T05:25:19;12.88;;;10.52;;
54555;SDS011;57291;37.520;15.106;2024-02-23T05:27:46;17.02;;;11.65;;
54555;SDS011;57291;37.520;15.106;2024-02-23T05:30:14;15.95;;;12.40;;
54555;SDS011;57291;37.520;15.106;2024-02-23T05:32:41;15.00;;;11.98;;
54555;SDS011;57291;37.520;15.106;2024-02-23T05:35:09;17.92;;;12.98;;
54555;SDS011;57291;37.520;15.106;2024-02-23T05:37:36;17.90;;;12.82;;
54555;SDS011;57291;37.520;15.106;2024-02-23T05:40:04;13.73;;;10.95;;
54555;SDS011;57291;37.520;15.106;2024-02-23T05:42:37;17.90;;;13.25;;
54555;SDS011;57291;37.520;15.106;2024-02-23T05:45:09;21.45;;;13.88;;
54555;SDS011;57291;37.520;15.106;2024-02-23T05:47:37;23.85;;;16.23;;
54555;SDS011;57291;37.520;15.106;2024-02-23T05:50:13;19.70;;;12.55;;
54555;SDS011;57291;37.520;15.106;2024-02-23T05:52:41;24.52;;;16.27;;
54555;SDS011;57291;37.520;15.106;2024-02-23T05:55:08;26.02;;;14.90;;
54555;SDS011;57291;37.520;15.106;2024-02-23T05:57:36;28.42;;;18.10;;
54555;SDS011;57291;37.520;15.106;2024-02-23T06:00:03;29.65;;;19.45;;
54555;SDS011;57291;37.520;15.106;2024-02-23T06:02:37;28.20;;;16.50;;
54555;SDS011;57291;37.520;15.106;2024-02-23T06:05:05;24.88;;;15.98;;
54555;SDS011;57291;37.520;15.106;2024-02-23T06:07:35;22.35;;;14.95;;
54555;SDS011;57291;37.520;15.106;2024-02-23T06:10:04;16.17;;;11.80;;
54555;SDS011;57291;37.520;15.106;2024-02-23T06:12:32;12.52;;;9.55;;
54555;SDS011;57291;37.520;15.106;2024-02-23T06:14:59;13.88;;;9.45;;
54555;SDS011;57291;37.520;15.106;2024-02-23T06:17:26;12.27;;;8.65;;
54555;SDS011;57291;37.520;15.106;2024-02-23T06:19:54;9.85;;;7.93;;
54555;SDS011;57291;37.520;15.106;2024-02-23T06:22:24;11.95;;;7.22;;
54555;SDS011;57291;37.520;15.106;2024-02-23T06:24:52;12.07;;;7.63;;
54555;SDS011;57291;37.520;15.106;2024-02-23T06:27:20;17.15;;;8.13;;
54555;SDS011;57291;37.520;15.106;2024-02-23T06:29:51;10.57;;;6.85;;
54555;SDS011;57291;37.520;15.106;2024-02-23T06:32:19;9.60;;;6.63;;
54555;SDS011;57291;37.520;15.106;2024-02-23T06:34:46;11.65;;;6.95;;
54555;SDS011;57291;37.520;15.106;2024-02-23T06:37:13;9.75;;;6.30;;
54555;SDS011;57291;37.520;15.106;2024-02-23T06:39:41;8.60;;;5.80;;
54555;SDS011;57291;37.520;15.106;2024-02-23T06:42:08;11.18;;;5.35;;
54555;SDS011;57291;37.520;15.106;2024-02-23T06:44:36;9.98;;;5.95;;
54555;SDS011;57291;37.520;15.106;2024-02-23T06:47:03;11.63;;;6.32;;
54555;SDS011;57291;37.520;15.106;2024-02-23T06:49:31;12.80;;;6.15;;
54555;SDS011;57291;37.520;15.106;2024-02-23T06:51:59;11.18;;;6.80;;
54555;SDS011;57291;37.520;15.106;2024-02-23T06:54:26;11.95;;;6.97;;
54555;SDS011;57291;37.520;15.106;2024-02-23T06:56:53;12.98;;;7.30;;
54555;SDS011;57291;37.520;15.106;2024-02-23T06:59:21;11.30;;;8.07;;
54555;SDS011;57291;37.520;15.106;2024-02-23T07:01:51;14.52;;;6.90;;
54555;SDS011;57291;37.520;15.106;2024-02-23T07:04:19;13.70;;;7.38;;
54555;SDS011;57291;37.520;15.106;2024-02-23T07:06:46;12.48;;;7.63;;
54555;SDS011;57291;37.520;15.106;2024-02-23T07:09:14;10.88;;;7.75;;
54555;SDS011;57291;37.520;15.106;2024-02-23T07:11:41;11.18;;;7.90;;
54555;SDS011;57291;37.520;15.106;2024-02-23T07:14:14;11.43;;;8.03;;
54555;SDS011;57291;37.520;15.106;2024-02-23T07:16:48;14.82;;;8.82;;
54555;SDS011;57291;37.520;15.106;2024-02-23T07:19:15;14.55;;;8.52;;
54555;SDS011;57291;37.520;15.106;2024-02-23T07:21:43;13.68;;;8.55;;
54555;SDS011;57291;37.520;15.106;2024-02-23T07:24:10;11.35;;;7.78;;
54555;SDS011;57291;37.520;15.106;2024-02-23T07:26:38;12.82;;;7.85;;
54555;SDS011;57291;37.520;15.106;2024-02-23T07:29:05;10.32;;;7.70;;
54555;SDS011;57291;37.520;15.106;2024-02-23T07:31:34;11.18;;;8.00;;
54555;SDS011;57291;37.520;15.106;2024-02-23T07:34:01;11.63;;;7.70;;
54555;SDS011;57291;37.520;15.106;2024-02-23T07:36:29;11.93;;;8.10;;
54555;SDS011;57291;37.520;15.106;2024-02-23T07:38:57;10.85;;;7.50;;
54555;SDS011;57291;37.520;15.106;2024-02-23T07:41:24;11.20;;;7.13;;
54555;SDS011;57291;37.520;15.106;2024-02-23T07:43:52;12.32;;;6.90;;
54555;SDS011;57291;37.520;15.106;2024-02-23T07:46:19;11.15;;;7.00;;
54555;SDS011;57291;37.520;15.106;2024-02-23T07:48:47;10.75;;;7.32;;
54555;SDS011;57291;37.520;15.106;2024-02-23T07:51:15;11.23;;;6.50;;
54555;SDS011;57291;37.520;15.106;2024-02-23T07:53:42;11.20;;;7.35;;
54555;SDS011;57291;37.520;15.106;2024-02-23T07:56:10;8.07;;;5.75;;
54555;SDS011;57291;37.520;15.106;2024-02-23T07:58:38;9.93;;;5.82;;
54555;SDS011;57291;37.520;15.106;2024-02-23T08:01:05;11.23;;;6.35;;
54555;SDS011;57291;37.520;15.106;2024-02-23T08:03:33;10.50;;;5.60;;
54555;SDS011;57291;37.520;15.106;2024-02-23T08:06:02;8.85;;;5.85;;
54555;SDS011;57291;37.520;15.106;2024-02-23T08:08:30;9.57;;;5.45;;
54555;SDS011;57291;37.520;15.106;2024-02-23T08:11:02;10.38;;;5.57;;
54555;SDS011;57291;37.520;15.106;2024-02-23T08:13:30;11.13;;;5.50;;
54555;SDS011;57291;37.520;15.106;2024-02-23T08:15:57;8.05;;;5.82;;
54555;SDS011;57291;37.520;15.106;2024-02-23T08:18:25;12.32;;;6.15;;
54555;SDS011;57291;37.520;15.106;2024-02-23T08:20:53;8.93;;;5.82;;
54555;SDS011;57291;37.520;15.106;2024-02-23T08:23:21;8.73;;;5.63;;
54555;SDS011;57291;37.520;15.106;2024-02-23T08:25:50;9.55;;;5.68;;
54555;SDS011;57291;37.520;15.106;2024-02-23T08:28:17;9.02;;;5.82;;
54555;SDS011;57291;37.520;15.106;2024-02-23T08:30:44;10.93;;;6.78;;
54555;SDS011;57291;37.520;15.106;2024-02-23T08:33:13;8.15;;;5.55;;
54555;SDS011;57291;37.520;15.106;2024-02-23T08:35:40;8.48;;;5.40;;
54555;SDS011;57291;37.520;15.106;2024-02-23T08:38:08;11.93;;;5.28;;
54555;SDS011;57291;37.520;15.106;2024-02-23T08:40:35;11.90;;;5.60;;
54555;SDS011;57291;37.520;15.106;2024-02-23T08:43:03;8.63;;;5.15;;
54555;SDS011;57291;37.520;15.106;2024-02-23T08:48:33;8.98;;;5.70;;
54555;SDS011;57291;37.520;15.106;2024-02-23T08:51:00;10.23;;;5.50;;
54555;SDS011;57291;37.520;15.106;2024-02-23T08:53:28;9.52;;;5.80;;
54555;SDS011;57291;37.520;15.106;2024-02-23T08:55:55;11.02;;;5.53;;
54555;SDS011;57291;37.520;15.106;2024-02-23T08:58:22;7.60;;;5.32;;
54555;SDS011;57291;37.520;15.106;2024-02-23T09:00:50;8.80;;;5.88;;
54555;SDS011;57291;37.520;15.106;2024-02-23T09:03:17;10.52;;;5.60;;
54555;SDS011;57291;37.520;15.106;2024-02-23T09:05:44;7.90;;;5.60;;
54555;SDS011;57291;37.520;15.106;2024-02-23T09:08:14;10.82;;;5.57;;
54555;SDS011;57291;37.520;15.106;2024-02-23T09:10:41;7.38;;;5.00;;
54555;SDS011;57291;37.520;15.106;2024-02-23T09:13:10;11.35;;;5.13;;
54555;SDS011;57291;37.520;15.106;2024-02-23T09:15:38;8.73;;;5.57;;
54555;SDS011;57291;37.520;15.106;2024-02-23T09:18:05;9.50;;;4.72;;
54555;SDS011;57291;37.520;15.106;2024-02-23T09:20:32;7.97;;;4.15;;
54555;SDS011;57291;37.520;15.106;2024-02-23T09:23:00;7.32;;;4.20;;
54555;SDS011;57291;37.520;15.106;2024-02-23T09:25:27;10.10;;;4.45;;
54555;SDS011;57291;37.520;15.106;2024-02-23T09:27:56;9.38;;;4.20;;
54555;SDS011;57291;37.520;15.106;2024-02-23T09:30:24;5.95;;;4.00;;
54555;SDS011;57291;37.520;15.106;2024-02-23T09:32:52;6.28;;;4.10;;
54555;SDS011;57291;37.520;15.106;2024-02-23T09:35:19;7.88;;;4.07;;
54555;SDS011;57291;37.520;15.106;2024-02-23T09:37:47;11.40;;;4.28;;
54555;SDS011;57291;37.520;15.106;2024-02-23T09:40:14;6.53;;;3.45;;
54555;SDS011;57291;37.520;15.106;2024-02-23T09:42:43;7.50;;;3.55;;
54555;SDS011;57291;37.520;15.106;2024-02-23T09:45:17;6.70;;;3.50;;
54555;SDS011;57291;37.520;15.106;2024-02-23T09:47:44;5.88;;;3.90;;
54555;SDS011;57291;37.520;15.106;2024-02-23T09:50:13;6.75;;;3.72;;
54555;SDS011;57291;37.520;15.106;2024-02-23T09:52:44;8.27;;;3.60;;
54555;SDS011;57291;37.520;15.106;2024-02-23T09:55:13;8.70;;;4.10;;
54555;SDS011;57291;37.520;15.106;2024-02-23T09:57:41;9.85;;;3.75;;
54555;SDS011;57291;37.520;15.106;2024-02-23T10:00:09;7.95;;;4.20;;
54555;SDS011;57291;37.520;15.106;2024-02-23T10:02:37;6.63;;;3.67;;
54555;SDS011;57291;37.520;15.106;2024-02-23T10:05:06;5.22;;;3.85;;
54555;SDS011;57291;37.520;15.106;2024-02-23T10:07:37;9.77;;;4.10;;
54555;SDS011;57291;37.520;15.106;2024-02-23T10:10:07;6.07;;;3.72;;
54555;SDS011;57291;37.520;15.106;2024-02-23T10:12:35;8.32;;;4.78;;
54555;SDS011;57291;37.520;15.106;2024-02-23T10:15:04;6.70;;;3.60;;
54555;SDS011;57291;37.520;15.106;2024-02-23T10:17:32;9.60;;;3.85;;
54555;SDS011;57291;37.520;15.106;2024-02-23T10:20:02;8.75;;;4.38;;
54555;SDS011;57291;37.520;15.106;2024-02-23T10:22:33;6.55;;;4.10;;
54555;SDS011;57291;37.520;15.106;2024-02-23T10:25:02;10.75;;;4.03;;
54555;SDS011;57291;37.520;15.106;2024-02-23T10:27:30;6.32;;;3.78;;
54555;SDS011;57291;37.520;15.106;2024-02-23T10:29:57;7.68;;;4.10;;
54555;SDS011;57291;37.520;15.106;2024-02-23T10:32:25;9.52;;;3.92;;
54555;SDS011;57291;37.520;15.106;2024-02-23T10:34:58;7.22;;;3.70;;
54555;SDS011;57291;37.520;15.106;2024-02-23T10:37:31;5.43;;;3.45;;
54555;SDS011;57291;37.520;15.106;2024-02-23T10:39:58;8.60;;;3.70;;
54555;SDS011;57291;37.520;15.106;2024-02-23T10:42:29;7.07;;;3.88;;
54555;SDS011;57291;37.520;15.106;2024-02-23T10:45:01;7.78;;;3.90;;
54555;SDS011;57291;37.520;15.106;2024-02-23T10:47:30;6.88;;;3.22;;
54555;SDS011;57291;37.520;15.106;2024-02-23T10:50:02;4.55;;;2.95;;
54555;SDS011;57291;37.520;15.106;2024-02-23T10:52:30;7.10;;;3.38;;
54555;SDS011;57291;37.520;15.106;2024-02-23T10:55:00;6.18;;;3.10;;
54555;SDS011;57291;37.520;15.106;2024-02-23T10:57:31;6.28;;;3.38;;
54555;SDS011;57291;37.520;15.106;2024-02-23T10:59:59;6.78;;;3.22;;
54555;SDS011;57291;37.520;15.106;2024-02-23T11:02:27;6.25;;;3.00;;
54555;SDS011;57291;37.520;15.106;2024-02-23T11:04:58;5.97;;;3.67;;
54555;SDS011;57291;37.520;15.106;2024-02-23T11:07:29;5.97;;;3.03;;
54555;SDS011;57291;37.520;15.106;2024-02-23T11:10:00;5.47;;;3.13;;
54555;SDS011;57291;37.520;15.106;2024-02-23T11:12:31;6.18;;;3.00;;
54555;SDS011;57291;37.520;15.106;2024-02-23T11:14:58;5.43;;;2.88;;
54555;SDS011;57291;37.520;15.106;2024-02-23T11:17:31;5.47;;;3.13;;
54555;SDS011;57291;37.520;15.106;2024-02-23T11:20:02;6.00;;;3.03;;
54555;SDS011;57291;37.520;15.106;2024-02-23T11:22:32;7.45;;;2.90;;
54555;SDS011;57291;37.520;15.106;2024-02-23T11:25:05;6.65;;;3.00;;
54555;SDS011;57291;37.520;15.106;2024-02-23T11:27:37;5.23;;;3.10;;
54555;SDS011;57291;37.520;15.106;2024-02-23T11:30:09;5.97;;;2.80;;
54555;SDS011;57291;37.520;15.106;2024-02-23T11:32:39;7.47;;;2.85;;
54555;SDS011;57291;37.520;15.106;2024-02-23T11:35:10;7.50;;;2.95;;
54555;SDS011;57291;37.520;15.106;2024-02-23T11:37:54;6.25;;;2.50;;
54555;SDS011;57291;37.520;15.106;2024-02-23T11:40:31;5.65;;;2.35;;
54555;SDS011;57291;37.520;15.106;2024-02-23T11:42:59;4.70;;;2.60;;
54555;SDS011;57291;37.520;15.106;2024-02-23T11:45:30;6.60;;;2.30;;
54555;SDS011;57291;37.520;15.106;2024-02-23T11:47:58;4.57;;;2.30;;
54555;SDS011;57291;37.520;15.106;2024-02-23T11:50:27;7.00;;;2.38;;
54555;SDS011;57291;37.520;15.106;2024-02-23T11:52:54;4.03;;;2.40;;
54555;SDS011;57291;37.520;15.106;2024-02-23T11:55:22;4.55;;;2.17;;
54555;SDS011;57291;37.520;15.106;2024-02-23T11:57:50;6.25;;;2.00;;
54555;SDS011;57291;37.520;15.106;2024-02-23T12:00:31;4.82;;;2.10;;
54555;SDS011;57291;37.520;15.106;2024-02-23T12:02:59;5.13;;;2.13;;
54555;SDS011;57291;37.520;15.106;2024-02-23T12:05:26;4.18;;;1.92;;
54555;SDS011;57291;37.520;15.106;2024-02-23T12:07:54;6.63;;;2.47;;
54555;SDS011;57291;37.520;15.106;2024-02-23T12:10:23;4.90;;;1.90;;
54555;SDS011;57291;37.520;15.106;2024-02-23T12:12:50;5.30;;;2.25;;
54555;SDS011;57291;37.520;15.106;2024-02-23T12:15:17;7.03;;;2.30;;
54555;SDS011;57291;37.520;15.106;2024-02-23T12:17:49;4.13;;;2.08;;
54555;SDS011;57291;37.520;15.106;2024-02-23T12:20:17;6.07;;;2.53;;
54555;SDS011;57291;37.520;15.106;2024-02-23T12:22:45;4.70;;;2.00;;
54555;SDS011;57291;37.520;15.106;2024-02-23T12:25:14;5.28;;;2.20;;
54555;SDS011;57291;37.520;15.106;2024-02-23T12:27:42;6.03;;;2.30;;
54555;SDS011;57291;37.520;15.106;2024-02-23T12:30:14;6.80;;;2.78;;
54555;SDS011;57291;37.520;15.106;2024-02-23T12:32:42;5.20;;;2.33;;
54555;SDS011;57291;37.520;15.106;2024-02-23T12:35:10;8.20;;;2.38;;
54555;SDS011;57291;37.520;15.106;2024-02-23T12:37:39;7.93;;;2.10;;
54555;SDS011;57291;37.520;15.106;2024-02-23T12:40:11;6.13;;;2.20;;
54555;SDS011;57291;37.520;15.106;2024-02-23T12:42:40;6.65;;;2.45;;
54555;SDS011;57291;37.520;15.106;2024-02-23T12:45:08;6.05;;;2.35;;
54555;SDS011;57291;37.520;15.106;2024-02-23T12:47:35;4.68;;;2.45;;
54555;SDS011;57291;37.520;15.106;2024-02-23T12:50:04;8.30;;;2.92;;
54555;SDS011;57291;37.520;15.106;2024-02-23T12:52:32;5.25;;;2.08;;
54555;SDS011;57291;37.520;15.106;2024-02-23T12:55:00;7.57;;;1.95;;
54555;SDS011;57291;37.520;15.106;2024-02-23T12:57:27;5.55;;;2.15;;
54555;SDS011;57291;37.520;15.106;2024-02-23T12:59:54;4.38;;;2.28;;
54555;SDS011;57291;37.520;15.106;2024-02-23T13:02:22;4.65;;;2.22;;
54555;SDS011;57291;37.520;15.106;2024-02-23T13:04:49;7.03;;;2.25;;
54555;SDS011;57291;37.520;15.106;2024-02-23T13:07:16;4.72;;;2.00;;
54555;SDS011;57291;37.520;15.106;2024-02-23T13:09:44;5.15;;;2.25;;
54555;SDS011;57291;37.520;15.106;2024-02-23T13:12:11;6.13;;;2.13;;
54555;SDS011;57291;37.520;15.106;2024-02-23T13:14:39;6.47;;;1.98;;
54555;SDS011;57291;37.520;15.106;2024-02-23T13:17:07;5.43;;;2.10;;
54555;SDS011;57291;37.520;15.106;2024-02-23T13:19:34;7.15;;;2.60;;
54555;SDS011;57291;37.520;15.106;2024-02-23T13:22:02;6.45;;;2.25;;
54555;SDS011;57291;37.520;15.106;2024-02-23T13:24:29;6.63;;;2.10;;
54555;SDS011;57291;37.520;15.106;2024-02-23T13:26:56;7.05;;;2.60;;
54555;SDS011;57291;37.520;15.106;2024-02-23T13:29:23;9.98;;;2.42;;
54555;SDS011;57291;37.520;15.106;2024-02-23T13:31:51;8.07;;;2.78;;
54555;SDS011;57291;37.520;15.106;2024-02-23T13:34:18;8.25;;;2.63;;
54555;SDS011;57291;37.520;15.106;2024-02-23T13:36:46;6.40;;;2.30;;
54555;SDS011;57291;37.520;15.106;2024-02-23T13:39:14;6.03;;;2.22;;
54555;SDS011;57291;37.520;15.106;2024-02-23T13:41:41;5.68;;;2.65;;
54555;SDS011;57291;37.520;15.106;2024-02-23T13:44:09;9.82;;;2.78;;
54555;SDS011;57291;37.520;15.106;2024-02-23T13:46:38;11.13;;;3.10;;
54555;SDS011;57291;37.520;15.106;2024-02-23T13:49:06;5.68;;;2.60;;
54555;SDS011;57291;37.520;15.106;2024-02-23T13:51:36;6.53;;;2.78;;
54555;SDS011;57291;37.520;15.106;2024-02-23T13:54:03;6.95;;;2.70;;
54555;SDS011;57291;37.520;15.106;2024-02-23T13:56:30;6.00;;;2.95;;
54555;SDS011;57291;37.520;15.106;2024-02-23T13:58:58;11.05;;;2.75;;
54555;SDS011;57291;37.520;15.106;2024-02-23T14:01:26;8.02;;;2.97;;
54555;SDS011;57291;37.520;15.106;2024-02-23T14:03:53;8.05;;;3.00;;
54555;SDS011;57291;37.520;15.106;2024-02-23T14:06:21;10.63;;;2.80;;
54555;SDS011;57291;37.520;15.106;2024-02-23T14:08:49;9.27;;;2.90;;
54555;SDS011;57291;37.520;15.106;2024-02-23T14:11:17;8.00;;;2.97;;
54555;SDS011;57291;37.520;15.106;2024-02-23T14:13:45;9.30;;;2.75;;
54555;SDS011;57291;37.520;15.106;2024-02-23T14:16:17;6.45;;;2.80;;
54555;SDS011;57291;37.520;15.106;2024-02-23T14:18:44;7.32;;;2.83;;
54555;SDS011;57291;37.520;15.106;2024-02-23T14:21:12;8.32;;;2.67;;
54555;SDS011;57291;37.520;15.106;2024-02-23T14:23:41;10.80;;;2.92;;
54555;SDS011;57291;37.520;15.106;2024-02-23T14:26:09;9.90;;;3.10;;
54555;SDS011;57291;37.520;15.106;2024-02-23T14:28:37;9.05;;;2.90;;
54555;SDS011;57291;37.520;15.106;2024-02-23T14:31:04;7.93;;;2.47;;